sensor_id;sensor_type;location;lat;lon;timestamp;P1;durP1;ratioP1;P2;durP2;ratioP2
3561;SDS011;1795;52.074;4.754;2022-07-23T00:00:47;5.50;;;2.35;;
3561;SDS011;1795;52.074;4.754;2022-07-23T00:03:16;2.30;;;2.10;;
3561;SDS011;1795;52.074;4.754;2022-07-23T00:05:44;4.97;;;2.70;;
3561;SDS011;1795;52.074;4.754;2022-07-23T00:08:13;2.60;;;2.40;;
3561;SDS011;1795;52.074;4.754;2022-07-23T00:10:41;3.38;;;2.45;;
3561;SDS011;1795;52.074;4.754;2022-07-23T00:13:09;6.97;;;2.58;;
3561;SDS011;1795;52.074;4.754;2022-07-23T00:15:37;3.25;;;2.40;;
3561;SDS011;1795;52.074;4.754;2022-07-23T00:18:05;4.75;;;2.70;;
3561;SDS011;1795;52.074;4.754;2022-07-23T00:20:33;2.80;;;2.60;;
3561;SDS011;1795;52.074;4.754;2022-07-23T00:23:01;6.10;;;2.70;;
3561;SDS011;1795;52.074;4.754;2022-07-23T00:25:30;2.60;;;2.40;;
3561;SDS011;1795;52.074;4.754;2022-07-23T00:27:59;4.10;;;2.88;;
3561;SDS011;1795;52.074;4.754;2022-07-23T00:30:28;4.78;;;2.97;;
3561;SDS011;1795;52.074;4.754;2022-07-23T00:32:58;5.03;;;2.88;;
3561;SDS011;1795;52.074;4.754;2022-07-23T00:35:30;3.80;;;2.60;;
3561;SDS011;1795;52.074;4.754;2022-07-23T00:38:00;3.13;;;2.83;;
3561;SDS011;1795;52.074;4.754;2022-07-23T00:40:30;3.15;;;2.75;;
3561;SDS011;1795;52.074;4.754;2022-07-23T00:42:58;3.22;;;2.50;;
3561;SDS011;1795;52.074;4.754;2022-07-23T00:45:27;3.40;;;3.10;;
3561;SDS011;1795;52.074;4.754;2022-07-23T00:47:55;3.90;;;2.35;;
3561;SDS011;1795;52.074;4.754;2022-07-23T00:50:24;4.82;;;2.97;;
3561;SDS011;1795;52.074;4.754;2022-07-23T00:52:52;7.18;;;2.80;;
3561;SDS011;1795;52.074;4.754;2022-07-23T00:55:21;5.40;;;2.60;;
3561;SDS011;1795;52.074;4.754;2022-07-23T00:57:50;3.00;;;2.80;;
3561;SDS011;1795;52.074;4.754;2022-07-23T01:00:19;5.82;;;2.78;;
3561;SDS011;1795;52.074;4.754;2022-07-23T01:02:47;3.88;;;2.70;;
3561;SDS011;1795;52.074;4.754;2022-07-23T01:05:15;2.90;;;2.70;;
3561;SDS011;1795;52.074;4.754;2022-07-23T01:07:48;4.80;;;3.20;;
3561;SDS011;1795;52.074;4.754;2022-07-23T01:10:21;4.10;;;3.17;;
3561;SDS011;1795;52.074;4.754;2022-07-23T01:13:02;4.30;;;2.67;;
3561;SDS011;1795;52.074;4.754;2022-07-23T01:15:31;5.05;;;2.90;;
3561;SDS011;1795;52.074;4.754;2022-07-23T01:18:00;4.65;;;3.05;;
3561;SDS011;1795;52.074;4.754;2022-07-23T01:20:29;4.20;;;2.70;;
3561;SDS011;1795;52.074;4.754;2022-07-23T01:22:59;3.22;;;2.90;;
3561;SDS011;1795;52.074;4.754;2022-07-23T01:25:27;3.83;;;3.30;;
3561;SDS011;1795;52.074;4.754;2022-07-23T01:27:55;3.40;;;3.07;;
3561;SDS011;1795;52.074;4.754;2022-07-23T01:30:23;3.00;;;2.60;;
3561;SDS011;1795;52.074;4.754;2022-07-23T01:32:51;2.97;;;2.70;;
3561;SDS011;1795;52.074;4.754;2022-07-23T01:35:19;5.63;;;2.70;;
3561;SDS011;1795;52.074;4.754;2022-07-23T01:37:47;5.60;;;3.40;;
3561;SDS011;1795;52.074;4.754;2022-07-23T01:40:16;3.47;;;2.60;;
3561;SDS011;1795;52.074;4.754;2022-07-23T01:42:46;3.17;;;2.87;;
3561;SDS011;1795;52.074;4.754;2022-07-23T01:45:14;4.45;;;2.83;;
3561;SDS011;1795;52.074;4.754;2022-07-23T01:47:42;4.13;;;2.70;;
3561;SDS011;1795;52.074;4.754;2022-07-23T01:50:10;3.93;;;2.70;;
3561;SDS011;1795;52.074;4.754;2022-07-23T01:52:38;5.07;;;2.75;;
3561;SDS011;1795;52.074;4.754;2022-07-23T01:55:07;3.00;;;2.55;;
3561;SDS011;1795;52.074;4.754;2022-07-23T01:57:45;4.85;;;2.88;;
3561;SDS011;1795;52.074;4.754;2022-07-23T02:00:13;2.72;;;2.45;;
3561;SDS011;1795;52.074;4.754;2022-07-23T02:02:42;5.95;;;2.85;;
3561;SDS011;1795;52.074;4.754;2022-07-23T02:05:10;3.13;;;2.50;;
3561;SDS011;1795;52.074;4.754;2022-07-23T02:07:38;4.88;;;3.25;;
3561;SDS011;1795;52.074;4.754;2022-07-23T02:10:06;5.28;;;3.10;;
3561;SDS011;1795;52.074;4.754;2022-07-23T02:12:35;5.20;;;2.83;;
3561;SDS011;1795;52.074;4.754;2022-07-23T02:15:05;5.50;;;3.70;;
3561;SDS011;1795;52.074;4.754;2022-07-23T02:17:35;3.78;;;3.17;;
3561;SDS011;1795;52.074;4.754;2022-07-23T02:20:03;5.82;;;3.10;;
3561;SDS011;1795;52.074;4.754;2022-07-23T02:22:33;5.00;;;3.30;;
3561;SDS011;1795;52.074;4.754;2022-07-23T02:25:02;3.85;;;3.28;;
3561;SDS011;1795;52.074;4.754;2022-07-23T02:27:30;4.60;;;3.10;;
3561;SDS011;1795;52.074;4.754;2022-07-23T02:29:58;5.82;;;3.00;;
3561;SDS011;1795;52.074;4.754;2022-07-23T02:32:28;3.63;;;3.20;;
3561;SDS011;1795;52.074;4.754;2022-07-23T02:34:56;3.40;;;3.00;;
3561;SDS011;1795;52.074;4.754;2022-07-23T02:37:24;5.70;;;2.80;;
3561;SDS011;1795;52.074;4.754;2022-07-23T02:39:52;4.40;;;2.60;;
3561;SDS011;1795;52.074;4.754;2022-07-23T02:42:21;4.47;;;2.70;;
3561;SDS011;1795;52.074;4.754;2022-07-23T02:44:50;5.07;;;2.90;;
3561;SDS011;1795;52.074;4.754;2022-07-23T02:47:18;3.40;;;3.10;;
3561;SDS011;1795;52.074;4.754;2022-07-23T02:49:47;3.30;;;2.90;;
3561;SDS011;1795;52.074;4.754;2022-07-23T02:52:15;6.05;;;3.22;;
3561;SDS011;1795;52.074;4.754;2022-07-23T02:54:43;5.18;;;3.40;;
3561;SDS011;1795;52.074;4.754;2022-07-23T02:57:11;3.05;;;2.75;;
3561;SDS011;1795;52.074;4.754;2022-07-23T02:59:39;6.00;;;3.20;;
3561;SDS011;1795;52.074;4.754;2022-07-23T03:02:07;3.42;;;3.13;;
3561;SDS011;1795;52.074;4.754;2022-07-23T03:04:35;3.63;;;3.00;;
3561;SDS011;1795;52.074;4.754;2022-07-23T03:07:04;5.10;;;2.87;;
3561;SDS011;1795;52.074;4.754;2022-07-23T03:09:32;3.45;;;2.90;;
3561;SDS011;1795;52.074;4.754;2022-07-23T03:12:00;4.20;;;3.10;;
3561;SDS011;1795;52.074;4.754;2022-07-23T03:14:28;3.95;;;3.40;;
3561;SDS011;1795;52.074;4.754;2022-07-23T03:16:56;3.38;;;2.95;;
3561;SDS011;1795;52.074;4.754;2022-07-23T03:19:25;4.03;;;3.22;;
3561;SDS011;1795;52.074;4.754;2022-07-23T03:21:54;3.45;;;3.15;;
3561;SDS011;1795;52.074;4.754;2022-07-23T03:24:23;4.43;;;3.27;;
3561;SDS011;1795;52.074;4.754;2022-07-23T03:27:11;3.87;;;3.10;;
3561;SDS011;1795;52.074;4.754;2022-07-23T03:29:39;3.58;;;3.28;;
3561;SDS011;1795;52.074;4.754;2022-07-23T03:32:07;4.40;;;3.53;;
3561;SDS011;1795;52.074;4.754;2022-07-23T03:34:36;5.43;;;3.53;;
3561;SDS011;1795;52.074;4.754;2022-07-23T03:37:05;5.00;;;3.47;;
3561;SDS011;1795;52.074;4.754;2022-07-23T03:39:34;3.90;;;3.40;;
3561;SDS011;1795;52.074;4.754;2022-07-23T03:42:02;6.57;;;3.20;;
3561;SDS011;1795;52.074;4.754;2022-07-23T03:44:30;5.23;;;3.50;;
3561;SDS011;1795;52.074;4.754;2022-07-23T03:46:58;7.75;;;3.60;;
3561;SDS011;1795;52.074;4.754;2022-07-23T03:49:28;3.35;;;3.00;;
3561;SDS011;1795;52.074;4.754;2022-07-23T03:51:56;5.10;;;3.20;;
3561;SDS011;1795;52.074;4.754;2022-07-23T03:54:24;3.67;;;3.00;;
3561;SDS011;1795;52.074;4.754;2022-07-23T03:56:54;3.72;;;3.33;;
3561;SDS011;1795;52.074;4.754;2022-07-23T03:59:22;6.35;;;3.45;;
3561;SDS011;1795;52.074;4.754;2022-07-23T04:01:50;4.40;;;3.70;;
3561;SDS011;1795;52.074;4.754;2022-07-23T04:04:18;6.03;;;3.40;;
3561;SDS011;1795;52.074;4.754;2022-07-23T04:06:46;4.40;;;3.50;;
3561;SDS011;1795;52.074;4.754;2022-07-23T04:09:14;6.10;;;3.57;;
3561;SDS011;1795;52.074;4.754;2022-07-23T04:11:42;5.00;;;3.85;;
3561;SDS011;1795;52.074;4.754;2022-07-23T04:14:11;4.90;;;3.42;;
3561;SDS011;1795;52.074;4.754;2022-07-23T04:16:39;5.60;;;3.60;;
3561;SDS011;1795;52.074;4.754;2022-07-23T04:19:07;3.85;;;3.30;;
3561;SDS011;1795;52.074;4.754;2022-07-23T04:21:35;4.63;;;3.92;;
3561;SDS011;1795;52.074;4.754;2022-07-23T04:24:03;4.18;;;3.50;;
3561;SDS011;1795;52.074;4.754;2022-07-23T04:26:31;3.95;;;3.65;;
3561;SDS011;1795;52.074;4.754;2022-07-23T04:28:59;4.18;;;3.50;;
3561;SDS011;1795;52.074;4.754;2022-07-23T04:31:29;4.45;;;3.58;;
3561;SDS011;1795;52.074;4.754;2022-07-23T04:34:02;6.28;;;3.50;;
3561;SDS011;1795;52.074;4.754;2022-07-23T04:36:31;4.35;;;3.58;;
3561;SDS011;1795;52.074;4.754;2022-07-23T04:38:59;6.25;;;3.40;;
3561;SDS011;1795;52.074;4.754;2022-07-23T04:41:27;3.80;;;3.50;;
3561;SDS011;1795;52.074;4.754;2022-07-23T04:43:55;6.68;;;3.15;;
3561;SDS011;1795;52.074;4.754;2022-07-23T04:46:23;6.82;;;3.50;;
3561;SDS011;1795;52.074;4.754;2022-07-23T04:48:53;3.80;;;3.20;;
3561;SDS011;1795;52.074;4.754;2022-07-23T04:51:21;3.40;;;3.20;;
3561;SDS011;1795;52.074;4.754;2022-07-23T04:53:49;3.20;;;2.90;;
3561;SDS011;1795;52.074;4.754;2022-07-23T04:56:17;4.13;;;3.72;;
3561;SDS011;1795;52.074;4.754;2022-07-23T04:58:45;5.53;;;4.10;;
3561;SDS011;1795;52.074;4.754;2022-07-23T05:01:13;6.63;;;3.70;;
3561;SDS011;1795;52.074;4.754;2022-07-23T05:03:41;6.90;;;3.45;;
3561;SDS011;1795;52.074;4.754;2022-07-23T05:06:10;3.67;;;3.17;;
3561;SDS011;1795;52.074;4.754;2022-07-23T05:08:38;6.75;;;3.50;;
3561;SDS011;1795;52.074;4.754;2022-07-23T05:11:06;5.75;;;3.58;;
3561;SDS011;1795;52.074;4.754;2022-07-23T05:13:34;9.90;;;4.10;;
3561;SDS011;1795;52.074;4.754;2022-07-23T05:16:02;5.75;;;3.50;;
3561;SDS011;1795;52.074;4.754;2022-07-23T05:18:30;5.35;;;3.72;;
3561;SDS011;1795;52.074;4.754;2022-07-23T05:20:58;3.22;;;2.90;;
3561;SDS011;1795;52.074;4.754;2022-07-23T05:23:28;4.40;;;3.38;;
3561;SDS011;1795;52.074;4.754;2022-07-23T05:25:56;4.60;;;3.40;;
3561;SDS011;1795;52.074;4.754;2022-07-23T05:28:23;4.20;;;3.00;;
3561;SDS011;1795;52.074;4.754;2022-07-23T05:30:51;3.53;;;3.20;;
3561;SDS011;1795;52.074;4.754;2022-07-23T05:33:20;4.50;;;2.60;;
3561;SDS011;1795;52.074;4.754;2022-07-23T05:35:48;6.22;;;3.33;;
3561;SDS011;1795;52.074;4.754;2022-07-23T05:38:16;3.55;;;2.72;;
3561;SDS011;1795;52.074;4.754;2022-07-23T05:40:45;6.90;;;3.00;;
3561;SDS011;1795;52.074;4.754;2022-07-23T05:43:13;4.38;;;2.90;;
3561;SDS011;1795;52.074;4.754;2022-07-23T05:45:41;6.20;;;2.80;;
3561;SDS011;1795;52.074;4.754;2022-07-23T05:48:09;2.87;;;2.60;;
3561;SDS011;1795;52.074;4.754;2022-07-23T05:50:37;3.85;;;2.95;;
3561;SDS011;1795;52.074;4.754;2022-07-23T05:53:05;2.90;;;2.45;;
3561;SDS011;1795;52.074;4.754;2022-07-23T05:55:33;2.42;;;2.22;;
3561;SDS011;1795;52.074;4.754;2022-07-23T05:58:02;2.53;;;2.30;;
3561;SDS011;1795;52.074;4.754;2022-07-23T06:00:30;4.03;;;2.28;;
3561;SDS011;1795;52.074;4.754;2022-07-23T06:02:58;2.42;;;2.00;;
3561;SDS011;1795;52.074;4.754;2022-07-23T06:05:26;3.10;;;2.30;;
3561;SDS011;1795;52.074;4.754;2022-07-23T06:07:54;2.30;;;2.10;;
3561;SDS011;1795;52.074;4.754;2022-07-23T06:10:22;4.20;;;2.10;;
3561;SDS011;1795;52.074;4.754;2022-07-23T06:12:50;2.35;;;2.10;;
3561;SDS011;1795;52.074;4.754;2022-07-23T06:15:28;5.03;;;2.20;;
3561;SDS011;1795;52.074;4.754;2022-07-23T06:17:56;3.85;;;2.20;;
3561;SDS011;1795;52.074;4.754;2022-07-23T06:20:24;1.92;;;1.80;;
3561;SDS011;1795;52.074;4.754;2022-07-23T06:22:52;2.97;;;1.90;;
3561;SDS011;1795;52.074;4.754;2022-07-23T06:25:20;6.78;;;2.30;;
3561;SDS011;1795;52.074;4.754;2022-07-23T06:27:48;4.88;;;2.30;;
3561;SDS011;1795;52.074;4.754;2022-07-23T06:30:17;3.40;;;1.80;;
3561;SDS011;1795;52.074;4.754;2022-07-23T06:32:46;2.05;;;1.85;;
3561;SDS011;1795;52.074;4.754;2022-07-23T06:35:15;5.32;;;1.92;;
3561;SDS011;1795;52.074;4.754;2022-07-23T06:37:44;4.00;;;1.70;;
3561;SDS011;1795;52.074;4.754;2022-07-23T06:40:13;3.90;;;1.90;;
3561;SDS011;1795;52.074;4.754;2022-07-23T06:42:41;4.03;;;1.90;;
3561;SDS011;1795;52.074;4.754;2022-07-23T06:45:09;3.63;;;1.98;;
3561;SDS011;1795;52.074;4.754;2022-07-23T06:47:37;1.77;;;1.67;;
3561;SDS011;1795;52.074;4.754;2022-07-23T06:50:09;2.90;;;1.80;;
3561;SDS011;1795;52.074;4.754;2022-07-23T06:52:37;2.70;;;1.70;;
3561;SDS011;1795;52.074;4.754;2022-07-23T06:55:08;5.03;;;1.60;;
3561;SDS011;1795;52.074;4.754;2022-07-23T06:57:36;4.60;;;2.20;;
3561;SDS011;1795;52.074;4.754;2022-07-23T07:00:05;2.35;;;1.73;;
3561;SDS011;1795;52.074;4.754;2022-07-23T07:02:34;5.75;;;1.75;;
3561;SDS011;1795;52.074;4.754;2022-07-23T07:05:02;9.68;;;2.30;;
3561;SDS011;1795;52.074;4.754;2022-07-23T07:07:33;2.13;;;1.92;;
3561;SDS011;1795;52.074;4.754;2022-07-23T07:10:02;2.65;;;1.90;;
3561;SDS011;1795;52.074;4.754;2022-07-23T07:12:30;6.50;;;2.20;;
3561;SDS011;1795;52.074;4.754;2022-07-23T07:14:58;2.65;;;2.45;;
3561;SDS011;1795;52.074;4.754;2022-07-23T07:17:26;5.57;;;1.90;;
3561;SDS011;1795;52.074;4.754;2022-07-23T07:19:54;3.80;;;2.17;;
3561;SDS011;1795;52.074;4.754;2022-07-23T07:22:22;6.20;;;2.28;;
3561;SDS011;1795;52.074;4.754;2022-07-23T07:24:52;4.30;;;2.60;;
3561;SDS011;1795;52.074;4.754;2022-07-23T07:27:20;3.80;;;2.50;;
3561;SDS011;1795;52.074;4.754;2022-07-23T07:29:47;7.20;;;2.60;;
3561;SDS011;1795;52.074;4.754;2022-07-23T07:32:15;11.18;;;2.50;;
3561;SDS011;1795;52.074;4.754;2022-07-23T07:35:03;2.40;;;1.98;;
3561;SDS011;1795;52.074;4.754;2022-07-23T07:37:32;4.70;;;1.70;;
3561;SDS011;1795;52.074;4.754;2022-07-23T07:40:02;4.53;;;2.10;;
3561;SDS011;1795;52.074;4.754;2022-07-23T07:42:30;5.40;;;2.10;;
3561;SDS011;1795;52.074;4.754;2022-07-23T07:44:58;2.08;;;1.75;;
3561;SDS011;1795;52.074;4.754;2022-07-23T07:47:26;1.73;;;1.40;;
3561;SDS011;1795;52.074;4.754;2022-07-23T07:49:54;3.83;;;1.50;;
3561;SDS011;1795;52.074;4.754;2022-07-23T07:52:22;2.90;;;1.30;;
3561;SDS011;1795;52.074;4.754;2022-07-23T07:54:50;1.50;;;1.40;;
3561;SDS011;1795;52.074;4.754;2022-07-23T07:57:19;1.50;;;1.30;;
3561;SDS011;1795;52.074;4.754;2022-07-23T07:59:47;3.30;;;1.70;;
3561;SDS011;1795;52.074;4.754;2022-07-23T08:02:21;2.60;;;1.40;;
3561;SDS011;1795;52.074;4.754;2022-07-23T08:04:49;1.20;;;1.10;;
3561;SDS011;1795;52.074;4.754;2022-07-23T08:07:18;2.30;;;1.40;;
3561;SDS011;1795;52.074;4.754;2022-07-23T08:09:46;5.82;;;1.20;;
3561;SDS011;1795;52.074;4.754;2022-07-23T08:12:14;2.30;;;1.30;;
3561;SDS011;1795;52.074;4.754;2022-07-23T08:14:44;2.78;;;1.40;;
3561;SDS011;1795;52.074;4.754;2022-07-23T08:17:12;2.58;;;1.45;;
3561;SDS011;1795;52.074;4.754;2022-07-23T08:19:40;4.88;;;1.67;;
3561;SDS011;1795;52.074;4.754;2022-07-23T08:22:09;3.85;;;1.35;;
3561;SDS011;1795;52.074;4.754;2022-07-23T08:24:37;3.60;;;1.40;;
3561;SDS011;1795;52.074;4.754;2022-07-23T08:27:05;2.90;;;1.50;;
3561;SDS011;1795;52.074;4.754;2022-07-23T08:29:32;3.95;;;1.50;;
3561;SDS011;1795;52.074;4.754;2022-07-23T08:32:02;2.78;;;1.30;;
3561;SDS011;1795;52.074;4.754;2022-07-23T08:34:50;2.13;;;1.50;;
3561;SDS011;1795;52.074;4.754;2022-07-23T08:37:18;2.72;;;1.38;;
3561;SDS011;1795;52.074;4.754;2022-07-23T08:39:46;2.20;;;1.30;;
3561;SDS011;1795;52.074;4.754;2022-07-23T08:42:14;2.75;;;1.40;;
3561;SDS011;1795;52.074;4.754;2022-07-23T08:44:44;2.83;;;1.50;;
3561;SDS011;1795;52.074;4.754;2022-07-23T08:47:14;3.80;;;1.50;;
3561;SDS011;1795;52.074;4.754;2022-07-23T08:49:43;4.30;;;1.30;;
3561;SDS011;1795;52.074;4.754;2022-07-23T08:52:13;2.28;;;1.50;;
3561;SDS011;1795;52.074;4.754;2022-07-23T08:54:41;3.13;;;1.60;;
3561;SDS011;1795;52.074;4.754;2022-07-23T08:57:10;3.33;;;1.60;;
3561;SDS011;1795;52.074;4.754;2022-07-23T08:59:38;3.08;;;1.50;;
3561;SDS011;1795;52.074;4.754;2022-07-23T09:02:06;2.50;;;1.80;;
3561;SDS011;1795;52.074;4.754;2022-07-23T09:04:35;1.20;;;1.10;;
3561;SDS011;1795;52.074;4.754;2022-07-23T09:07:03;3.05;;;1.70;;
3561;SDS011;1795;52.074;4.754;2022-07-23T09:09:32;2.47;;;1.50;;
3561;SDS011;1795;52.074;4.754;2022-07-23T09:12:03;3.13;;;1.70;;
3561;SDS011;1795;52.074;4.754;2022-07-23T09:14:36;2.53;;;1.50;;
3561;SDS011;1795;52.074;4.754;2022-07-23T09:17:11;2.40;;;1.67;;
3561;SDS011;1795;52.074;4.754;2022-07-23T09:19:41;4.00;;;1.37;;
3561;SDS011;1795;52.074;4.754;2022-07-23T09:22:16;3.20;;;1.60;;
3561;SDS011;1795;52.074;4.754;2022-07-23T09:25:06;3.70;;;1.40;;
3561;SDS011;1795;52.074;4.754;2022-07-23T09:27:47;1.90;;;1.17;;
3561;SDS011;1795;52.074;4.754;2022-07-23T09:30:20;2.25;;;1.50;;
3561;SDS011;1795;52.074;4.754;2022-07-23T09:35:45;2.42;;;1.70;;
3561;SDS011;1795;52.074;4.754;2022-07-23T09:38:14;4.50;;;1.40;;
3561;SDS011;1795;52.074;4.754;2022-07-23T09:40:43;2.80;;;1.50;;
3561;SDS011;1795;52.074;4.754;2022-07-23T09:43:12;2.63;;;1.60;;
3561;SDS011;1795;52.074;4.754;2022-07-23T09:48:44;1.85;;;1.33;;
3561;SDS011;1795;52.074;4.754;2022-07-23T09:51:13;4.30;;;1.60;;
3561;SDS011;1795;52.074;4.754;2022-07-23T09:53:43;1.70;;;1.60;;
3561;SDS011;1795;52.074;4.754;2022-07-23T09:56:11;3.10;;;1.48;;
3561;SDS011;1795;52.074;4.754;2022-07-23T09:58:42;3.17;;;1.40;;
3561;SDS011;1795;52.074;4.754;2022-07-23T10:01:14;3.38;;;1.50;;
3561;SDS011;1795;52.074;4.754;2022-07-23T10:03:42;3.63;;;1.47;;
3561;SDS011;1795;52.074;4.754;2022-07-23T10:06:10;2.30;;;1.50;;
3561;SDS011;1795;52.074;4.754;2022-07-23T10:08:41;2.08;;;1.50;;
3561;SDS011;1795;52.074;4.754;2022-07-23T10:11:13;2.13;;;1.80;;
3561;SDS011;1795;52.074;4.754;2022-07-23T10:13:42;1.83;;;1.30;;
3561;SDS011;1795;52.074;4.754;2022-07-23T10:16:21;2.72;;;1.50;;
3561;SDS011;1795;52.074;4.754;2022-07-23T10:18:53;2.80;;;1.40;;
3561;SDS011;1795;52.074;4.754;2022-07-23T10:21:24;4.70;;;2.08;;
3561;SDS011;1795;52.074;4.754;2022-07-23T10:24:01;3.53;;;1.80;;
3561;SDS011;1795;52.074;4.754;2022-07-23T10:26:38;3.53;;;1.75;;
3561;SDS011;1795;52.074;4.754;2022-07-23T10:29:18;3.65;;;1.77;;
3561;SDS011;1795;52.074;4.754;2022-07-23T10:31:56;2.20;;;1.67;;
3561;SDS011;1795;52.074;4.754;2022-07-23T10:34:31;3.00;;;1.80;;
3561;SDS011;1795;52.074;4.754;2022-07-23T10:37:11;1.90;;;1.48;;
3561;SDS011;1795;52.074;4.754;2022-07-23T10:39:48;3.20;;;1.60;;
3561;SDS011;1795;52.074;4.754;2022-07-23T10:42:36;2.80;;;1.40;;
3561;SDS011;1795;52.074;4.754;2022-07-23T10:45:28;4.13;;;1.30;;
3561;SDS011;1795;52.074;4.754;2022-07-23T10:48:14;3.90;;;2.17;;
3561;SDS011;1795;52.074;4.754;2022-07-23T10:50:45;3.10;;;1.80;;
3561;SDS011;1795;52.074;4.754;2022-07-23T11:02:36;3.40;;;1.80;;
3561;SDS011;1795;52.074;4.754;2022-07-23T11:05:05;3.72;;;1.90;;
3561;SDS011;1795;52.074;4.754;2022-07-23T11:07:35;3.40;;;1.95;;
3561;SDS011;1795;52.074;4.754;2022-07-23T11:10:04;2.60;;;2.05;;
3561;SDS011;1795;52.074;4.754;2022-07-23T11:12:35;2.83;;;2.10;;
3561;SDS011;1795;52.074;4.754;2022-07-23T11:15:04;2.92;;;1.92;;
3561;SDS011;1795;52.074;4.754;2022-07-23T11:17:35;2.78;;;2.30;;
3561;SDS011;1795;52.074;4.754;2022-07-23T11:20:16;3.63;;;1.70;;
3561;SDS011;1795;52.074;4.754;2022-07-23T11:22:54;3.83;;;2.28;;
3561;SDS011;1795;52.074;4.754;2022-07-23T11:25:34;3.15;;;1.88;;
3561;SDS011;1795;52.074;4.754;2022-07-23T11:28:12;3.63;;;1.67;;
3561;SDS011;1795;52.074;4.754;2022-07-23T11:30:43;6.00;;;1.80;;
3561;SDS011;1795;52.074;4.754;2022-07-23T11:33:15;3.63;;;1.65;;
3561;SDS011;1795;52.074;4.754;2022-07-23T11:35:45;2.40;;;1.50;;
3561;SDS011;1795;52.074;4.754;2022-07-23T11:38:16;2.80;;;1.90;;
3561;SDS011;1795;52.074;4.754;2022-07-23T11:40:47;3.63;;;1.50;;
3561;SDS011;1795;52.074;4.754;2022-07-23T11:43:18;1.85;;;1.60;;
3561;SDS011;1795;52.074;4.754;2022-07-23T11:45:47;2.80;;;1.77;;
3561;SDS011;1795;52.074;4.754;2022-07-23T11:48:17;4.50;;;1.70;;
3561;SDS011;1795;52.074;4.754;2022-07-23T11:50:46;1.98;;;1.67;;
3561;SDS011;1795;52.074;4.754;2022-07-23T11:53:20;2.50;;;1.37;;
3561;SDS011;1795;52.074;4.754;2022-07-23T11:55:49;1.67;;;1.58;;
3561;SDS011;1795;52.074;4.754;2022-07-23T11:58:19;3.25;;;1.70;;
3561;SDS011;1795;52.074;4.754;2022-07-23T12:00:48;3.58;;;1.67;;
3561;SDS011;1795;52.074;4.754;2022-07-23T12:03:17;3.70;;;1.50;;
3561;SDS011;1795;52.074;4.754;2022-07-23T12:05:45;2.50;;;1.60;;
3561;SDS011;1795;52.074;4.754;2022-07-23T12:08:13;2.63;;;1.90;;
3561;SDS011;1795;52.074;4.754;2022-07-23T12:10:42;3.38;;;1.90;;
3561;SDS011;1795;52.074;4.754;2022-07-23T12:13:11;2.10;;;2.00;;
3561;SDS011;1795;52.074;4.754;2022-07-23T12:15:42;4.20;;;1.70;;
3561;SDS011;1795;52.074;4.754;2022-07-23T12:18:12;3.15;;;1.70;;
3561;SDS011;1795;52.074;4.754;2022-07-23T12:20:43;2.92;;;1.70;;
3561;SDS011;1795;52.074;4.754;2022-07-23T12:23:14;2.40;;;2.20;;
3561;SDS011;1795;52.074;4.754;2022-07-23T12:25:46;3.10;;;1.70;;
3561;SDS011;1795;52.074;4.754;2022-07-23T12:28:16;1.80;;;1.70;;
3561;SDS011;1795;52.074;4.754;2022-07-23T12:30:47;3.60;;;1.90;;
3561;SDS011;1795;52.074;4.754;2022-07-23T12:33:21;1.97;;;1.70;;
3561;SDS011;1795;52.074;4.754;2022-07-23T12:35:51;2.28;;;1.77;;
3561;SDS011;1795;52.074;4.754;2022-07-23T12:38:22;3.28;;;1.65;;
3561;SDS011;1795;52.074;4.754;2022-07-23T12:40:51;5.00;;;1.85;;
3561;SDS011;1795;52.074;4.754;2022-07-23T12:43:21;2.67;;;1.75;;
3561;SDS011;1795;52.074;4.754;2022-07-23T12:45:53;2.53;;;1.60;;
3561;SDS011;1795;52.074;4.754;2022-07-23T12:48:23;2.20;;;1.80;;
3561;SDS011;1795;52.074;4.754;2022-07-23T12:50:53;2.15;;;1.70;;
3561;SDS011;1795;52.074;4.754;2022-07-23T12:53:24;2.20;;;2.00;;
3561;SDS011;1795;52.074;4.754;2022-07-23T12:56:01;3.10;;;1.58;;
3561;SDS011;1795;52.074;4.754;2022-07-23T12:58:44;2.45;;;2.25;;
3561;SDS011;1795;52.074;4.754;2022-07-23T13:01:27;3.15;;;2.08;;
3561;SDS011;1795;52.074;4.754;2022-07-23T13:03:58;4.50;;;2.00;;
3561;SDS011;1795;52.074;4.754;2022-07-23T13:06:31;2.70;;;1.60;;
3561;SDS011;1795;52.074;4.754;2022-07-23T13:09:00;2.40;;;1.77;;
3561;SDS011;1795;52.074;4.754;2022-07-23T13:11:30;4.05;;;1.75;;
3561;SDS011;1795;52.074;4.754;2022-07-23T13:13:59;3.70;;;1.83;;
3561;SDS011;1795;52.074;4.754;2022-07-23T13:16:30;2.50;;;1.90;;
3561;SDS011;1795;52.074;4.754;2022-07-23T13:18:59;1.92;;;1.73;;
3561;SDS011;1795;52.074;4.754;2022-07-23T13:21:28;1.70;;;1.60;;
3561;SDS011;1795;52.074;4.754;2022-07-23T13:23:57;3.53;;;1.70;;
3561;SDS011;1795;52.074;4.754;2022-07-23T13:26:25;1.77;;;1.67;;
3561;SDS011;1795;52.074;4.754;2022-07-23T13:28:53;3.08;;;1.70;;
3561;SDS011;1795;52.074;4.754;2022-07-23T13:31:21;2.67;;;1.90;;
3561;SDS011;1795;52.074;4.754;2022-07-23T13:33:51;2.20;;;2.00;;
3561;SDS011;1795;52.074;4.754;2022-07-23T13:36:19;3.70;;;1.50;;
3561;SDS011;1795;52.074;4.754;2022-07-23T13:38:47;3.10;;;1.80;;
3561;SDS011;1795;52.074;4.754;2022-07-23T13:41:16;2.97;;;1.95;;
3561;SDS011;1795;52.074;4.754;2022-07-23T13:43:44;1.63;;;1.50;;
3561;SDS011;1795;52.074;4.754;2022-07-23T13:46:13;2.80;;;2.10;;
3561;SDS011;1795;52.074;4.754;2022-07-23T13:48:41;3.60;;;1.90;;
3561;SDS011;1795;52.074;4.754;2022-07-23T13:51:11;2.45;;;1.75;;
3561;SDS011;1795;52.074;4.754;2022-07-23T13:53:39;2.50;;;2.30;;
3561;SDS011;1795;52.074;4.754;2022-07-23T13:56:07;2.10;;;1.95;;
3561;SDS011;1795;52.074;4.754;2022-07-23T13:58:35;2.55;;;1.90;;
3561;SDS011;1795;52.074;4.754;2022-07-23T14:01:04;3.45;;;2.10;;
3561;SDS011;1795;52.074;4.754;2022-07-23T14:03:32;3.80;;;1.98;;
3561;SDS011;1795;52.074;4.754;2022-07-23T14:06:00;2.90;;;2.20;;
3561;SDS011;1795;52.074;4.754;2022-07-23T14:08:30;4.35;;;1.90;;
3561;SDS011;1795;52.074;4.754;2022-07-23T14:10:58;2.38;;;1.70;;
3561;SDS011;1795;52.074;4.754;2022-07-23T14:13:32;3.10;;;1.70;;
3561;SDS011;1795;52.074;4.754;2022-07-23T14:16:01;2.70;;;2.20;;
3561;SDS011;1795;52.074;4.754;2022-07-23T14:18:30;5.88;;;1.80;;
3561;SDS011;1795;52.074;4.754;2022-07-23T14:20:59;2.13;;;1.90;;
3561;SDS011;1795;52.074;4.754;2022-07-23T14:23:27;3.90;;;1.90;;
3561;SDS011;1795;52.074;4.754;2022-07-23T14:25:57;2.53;;;2.00;;
3561;SDS011;1795;52.074;4.754;2022-07-23T14:28:25;3.95;;;2.00;;
3561;SDS011;1795;52.074;4.754;2022-07-23T14:30:53;4.30;;;2.10;;
3561;SDS011;1795;52.074;4.754;2022-07-23T14:33:21;2.90;;;2.00;;
3561;SDS011;1795;52.074;4.754;2022-07-23T14:35:51;2.85;;;2.00;;
3561;SDS011;1795;52.074;4.754;2022-07-23T14:38:19;2.33;;;1.80;;
3561;SDS011;1795;52.074;4.754;2022-07-23T14:40:47;3.40;;;1.90;;
3561;SDS011;1795;52.074;4.754;2022-07-23T14:43:17;2.15;;;1.88;;
3561;SDS011;1795;52.074;4.754;2022-07-23T14:45:45;2.00;;;1.80;;
3561;SDS011;1795;52.074;4.754;2022-07-23T14:48:14;2.05;;;1.80;;
3561;SDS011;1795;52.074;4.754;2022-07-23T14:50:43;2.78;;;2.05;;
3561;SDS011;1795;52.074;4.754;2022-07-23T14:53:11;2.33;;;2.13;;
3561;SDS011;1795;52.074;4.754;2022-07-23T14:55:39;3.30;;;2.10;;
3561;SDS011;1795;52.074;4.754;2022-07-23T14:58:07;3.78;;;2.20;;
3561;SDS011;1795;52.074;4.754;2022-07-23T15:00:37;2.30;;;1.85;;
3561;SDS011;1795;52.074;4.754;2022-07-23T15:03:05;3.20;;;2.00;;
3561;SDS011;1795;52.074;4.754;2022-07-23T15:05:34;4.80;;;2.10;;
3561;SDS011;1795;52.074;4.754;2022-07-23T15:08:02;2.50;;;2.10;;
3561;SDS011;1795;52.074;4.754;2022-07-23T15:10:34;2.90;;;2.00;;
3561;SDS011;1795;52.074;4.754;2022-07-23T15:13:03;4.50;;;2.00;;
3561;SDS011;1795;52.074;4.754;2022-07-23T15:15:33;2.73;;;1.90;;
3561;SDS011;1795;52.074;4.754;2022-07-23T15:18:04;2.38;;;2.08;;
3561;SDS011;1795;52.074;4.754;2022-07-23T15:20:32;3.30;;;2.00;;
3561;SDS011;1795;52.074;4.754;2022-07-23T15:23:05;2.72;;;1.60;;
3561;SDS011;1795;52.074;4.754;2022-07-23T15:25:35;3.58;;;2.38;;
3561;SDS011;1795;52.074;4.754;2022-07-23T15:28:04;1.90;;;1.80;;
3561;SDS011;1795;52.074;4.754;2022-07-23T15:30:34;2.95;;;2.28;;
3561;SDS011;1795;52.074;4.754;2022-07-23T15:33:04;3.20;;;1.80;;
3561;SDS011;1795;52.074;4.754;2022-07-23T15:35:44;3.40;;;2.00;;
3561;SDS011;1795;52.074;4.754;2022-07-23T15:38:12;2.60;;;1.73;;
3561;SDS011;1795;52.074;4.754;2022-07-23T15:41:00;2.72;;;1.80;;
3561;SDS011;1795;52.074;4.754;2022-07-23T15:43:28;4.43;;;1.88;;
3561;SDS011;1795;52.074;4.754;2022-07-23T15:45:57;3.38;;;1.80;;